createdAt,value
2022-08-28T00:00:49.761Z,24.35
2022-08-28T00:03:19.190Z,24.36
2022-08-28T00:05:47.728Z,24.38
2022-08-28T00:08:16.646Z,24.38
2022-08-28T00:10:45.645Z,24.37
2022-08-28T00:13:19.242Z,24.35
2022-08-28T00:15:50.468Z,24.32
2022-08-28T00:18:19.544Z,24.32
2022-08-28T00:20:49.568Z,24.32
2022-08-28T00:23:19.150Z,24.31
2022-08-28T00:25:48.032Z,24.31
2022-08-28T00:28:23.786Z,24.31
2022-08-28T00:30:55.001Z,24.31
2022-08-28T00:33:26.656Z,24.30
2022-08-28T00:35:55.748Z,24.29
2022-08-28T00:38:26.718Z,24.28
2022-08-28T00:40:57.563Z,24.25
2022-08-28T00:43:38.257Z,24.23
2022-08-28T00:46:09.953Z,24.20
2022-08-28T00:48:38.899Z,24.16
2022-08-28T00:51:26.100Z,24.13
2022-08-28T00:53:58.975Z,24.11
2022-08-28T00:56:29.061Z,24.09
2022-08-28T00:59:03.327Z,24.07
2022-08-28T01:01:31.835Z,24.03
2022-08-28T01:04:01.678Z,24.00
2022-08-28T01:06:30.171Z,23.97
2022-08-28T01:08:59.047Z,23.93
2022-08-28T01:11:29.107Z,23.88
2022-08-28T01:14:01.924Z,23.82
2022-08-28T01:16:33.892Z,23.78
2022-08-28T01:19:07.057Z,23.74
2022-08-28T01:21:47.689Z,23.69
2022-08-28T01:24:18.843Z,23.62
2022-08-28T01:26:47.336Z,23.56
2022-08-28T01:29:16.037Z,23.53
2022-08-28T01:31:44.458Z,23.50
2022-08-28T01:34:15.850Z,23.45
2022-08-28T01:36:44.312Z,23.41
2022-08-28T01:39:16.015Z,23.36
2022-08-28T01:41:47.713Z,23.31
2022-08-28T01:44:19.195Z,23.27
2022-08-28T01:46:47.718Z,23.23
2022-08-28T01:49:16.457Z,23.17
2022-08-28T01:51:44.858Z,23.11
2022-08-28T01:54:13.926Z,23.07
2022-08-28T01:56:44.124Z,23.03
2022-08-28T01:59:14.622Z,22.98
2022-08-28T02:01:43.791Z,22.95
2022-08-28T02:04:12.657Z,22.93
2022-08-28T02:06:41.536Z,22.92
2022-08-28T02:09:14.848Z,22.92
2022-08-28T02:11:46.743Z,22.91
2022-08-28T02:14:15.526Z,22.87
2022-08-28T02:16:43.975Z,22.85
2022-08-28T02:19:12.383Z,22.82
2022-08-28T02:21:43.894Z,22.78
2022-08-28T02:24:12.401Z,22.75
2022-08-28T02:26:40.895Z,22.74
2022-08-28T02:29:09.367Z,22.71
2022-08-28T02:31:42.149Z,22.68
2022-08-28T02:34:10.919Z,22.66
2022-08-28T02:36:41.886Z,22.64
2022-08-28T02:39:13.194Z,22.62
2022-08-28T02:41:41.886Z,22.59
2022-08-28T02:44:11.314Z,22.56
2022-08-28T02:46:39.842Z,22.53
2022-08-28T02:49:09.393Z,22.50
2022-08-28T02:51:37.738Z,22.48
2022-08-28T02:54:06.324Z,22.45
2022-08-28T02:56:34.744Z,22.41
2022-08-28T02:59:03.803Z,22.37
2022-08-28T03:01:33.504Z,22.34
2022-08-28T03:04:02.375Z,22.30
2022-08-28T03:06:31.134Z,22.27
2022-08-28T03:08:59.834Z,22.25
2022-08-28T03:11:28.351Z,22.22
2022-08-28T03:13:57.433Z,22.19
2022-08-28T03:16:26.364Z,22.18
2022-08-28T03:18:55.223Z,22.17
2022-08-28T03:21:41.262Z,22.17
2022-08-28T03:24:09.991Z,22.18
2022-08-28T03:26:43.743Z,22.17
2022-08-28T03:29:12.278Z,22.15
2022-08-28T03:31:40.844Z,22.12
2022-08-28T03:34:09.850Z,22.10
2022-08-28T03:36:38.270Z,22.09
2022-08-28T03:39:07.411Z,22.08
2022-08-28T03:41:36.287Z,22.08
2022-08-28T03:44:05.074Z,22.06
2022-08-28T03:46:36.475Z,22.02
2022-08-28T03:49:07.994Z,21.99
2022-08-28T03:51:36.680Z,21.96
2022-08-28T03:54:05.866Z,21.95
2022-08-28T03:56:34.707Z,21.93
2022-08-28T03:59:04.595Z,21.91
2022-08-28T04:01:40.811Z,21.91
2022-08-28T04:04:09.305Z,21.93
2022-08-28T04:06:38.020Z,21.93
2022-08-28T04:09:06.920Z,21.94
2022-08-28T04:11:42.035Z,21.93
2022-08-28T04:14:20.662Z,21.94
2022-08-28T04:16:49.289Z,21.98
2022-08-28T04:19:17.881Z,22.02
2022-08-28T04:21:46.591Z,22.08
2022-08-28T04:24:15.113Z,22.16
2022-08-28T04:26:44.314Z,22.23
2022-08-28T04:29:12.836Z,22.37
2022-08-28T04:31:41.847Z,22.76
2022-08-28T04:34:10.516Z,23.29
2022-08-28T04:36:39.282Z,23.87
2022-08-28T04:39:10.386Z,24.44
2022-08-28T04:41:39.403Z,25.02
2022-08-28T04:44:08.201Z,25.58
2022-08-28T04:46:37.260Z,26.12
2022-08-28T04:49:05.880Z,26.63
2022-08-28T04:51:36.842Z,27.09
2022-08-28T04:54:10.171Z,27.56
2022-08-28T04:56:40.917Z,27.96
2022-08-28T04:59:09.751Z,28.31
2022-08-28T05:01:40.329Z,28.61
2022-08-28T05:04:10.679Z,28.89
2022-08-28T05:06:42.819Z,29.16
2022-08-28T05:09:12.787Z,29.32
2022-08-28T05:11:42.165Z,29.38
2022-08-28T05:14:15.745Z,29.42
2022-08-28T05:16:47.731Z,29.49
2022-08-28T05:19:20.558Z,29.56
2022-08-28T05:21:50.466Z,29.59
2022-08-28T05:24:19.144Z,29.64
2022-08-28T05:26:48.117Z,29.78
2022-08-28T05:29:17.695Z,29.93
2022-08-28T05:31:47.163Z,30.08
2022-08-28T05:34:16.649Z,30.22
2022-08-28T05:36:45.111Z,30.34
2022-08-28T05:39:14.539Z,30.48
2022-08-28T05:41:45.002Z,30.70
2022-08-28T05:44:16.279Z,30.99
2022-08-28T05:46:47.669Z,31.35
2022-08-28T05:49:17.748Z,31.76
2022-08-28T05:51:46.850Z,32.28
2022-08-28T05:54:16.035Z,32.83
2022-08-28T05:56:45.720Z,33.47
2022-08-28T05:59:15.483Z,34.00
2022-08-28T06:01:46.599Z,34.55
2022-08-28T06:04:17.570Z,34.97
2022-08-28T06:06:48.804Z,35.29
2022-08-28T06:09:24.198Z,35.54
2022-08-28T06:11:55.963Z,35.81
2022-08-28T06:14:26.259Z,36.03
2022-08-28T06:16:57.828Z,36.18
2022-08-28T06:19:28.706Z,36.50
2022-08-28T06:21:59.912Z,36.81
2022-08-28T06:24:29.674Z,37.08
2022-08-28T06:26:59.609Z,37.41
2022-08-28T06:29:28.611Z,37.63
2022-08-28T06:31:59.056Z,37.80
2022-08-28T06:34:29.478Z,38.09
2022-08-28T06:36:58.103Z,38.36
2022-08-28T06:39:26.774Z,38.57
2022-08-28T06:41:58.028Z,38.75
2022-08-28T06:44:27.560Z,39.03
2022-08-28T06:46:56.612Z,39.22
2022-08-28T06:49:25.291Z,39.28
2022-08-28T06:51:54.350Z,39.43
2022-08-28T06:54:23.547Z,39.65
2022-08-28T06:56:52.885Z,39.94
2022-08-28T06:59:24.386Z,40.24
2022-08-28T07:01:53.786Z,40.53
2022-08-28T07:04:22.640Z,40.71
2022-08-28T07:06:54.057Z,40.82
2022-08-28T07:09:24.109Z,40.94
2022-08-28T07:11:53.204Z,40.97
2022-08-28T07:14:21.682Z,41.00
2022-08-28T07:16:50.159Z,41.05
2022-08-28T07:19:20.689Z,41.13
2022-08-28T07:21:51.600Z,41.19
2022-08-28T07:24:20.006Z,41.18
2022-08-28T07:26:48.479Z,41.17
2022-08-28T07:29:20.637Z,41.20
2022-08-28T07:31:51.269Z,41.18
2022-08-28T07:34:26.849Z,41.04
2022-08-28T07:41:15.335Z,40.81
2022-08-28T07:44:02.686Z,40.74
2022-08-28T07:46:31.719Z,40.58
2022-08-28T07:49:00.787Z,40.36
2022-08-28T07:51:36.259Z,40.14
2022-08-28T07:55:10.417Z,39.94
2022-08-28T07:57:51.822Z,39.68
2022-08-28T08:00:40.891Z,39.33
2022-08-28T08:03:12.940Z,38.98
2022-08-28T08:05:43.584Z,38.70
2022-08-28T08:08:12.229Z,38.34
2022-08-28T08:10:40.852Z,38.15
2022-08-28T08:17:10.225Z,37.74
2022-08-28T08:19:39.074Z,37.57
2022-08-28T08:22:07.679Z,37.38
2022-08-28T08:24:36.106Z,37.16
2022-08-28T08:27:06.154Z,36.89
2022-08-28T08:29:38.859Z,36.65
2022-08-28T08:32:10.281Z,36.50
2022-08-28T08:34:45.807Z,36.41
2022-08-28T08:37:14.507Z,36.38
2022-08-28T08:39:44.074Z,36.38
2022-08-28T08:42:26.268Z,36.41
2022-08-28T08:44:57.362Z,36.46
2022-08-28T08:47:35.157Z,36.43
2022-08-28T08:50:10.732Z,36.35
2022-08-28T08:52:50.286Z,36.29
2022-08-28T08:55:24.260Z,36.25
2022-08-28T08:58:02.094Z,36.16
2022-08-28T09:00:33.841Z,36.16
2022-08-28T09:03:06.658Z,36.12
2022-08-28T09:05:52.836Z,36.09
2022-08-28T09:08:32.047Z,36.02
2022-08-28T09:11:29.706Z,35.91
2022-08-28T09:25:47.423Z,35.33
2022-08-28T09:28:23.014Z,35.16
2022-08-28T09:31:04.793Z,35.00
2022-08-28T09:33:41.746Z,34.86
2022-08-28T09:36:31.140Z,34.77
2022-08-28T09:39:09.553Z,34.83
2022-08-28T09:42:10.197Z,34.82
2022-08-28T09:44:56.645Z,34.79
2022-08-28T09:47:50.142Z,34.80
2022-08-28T09:50:23.644Z,34.88
2022-08-28T09:52:53.875Z,34.94
2022-08-28T09:55:32.295Z,34.95
2022-08-28T09:58:01.712Z,34.95
2022-08-28T10:00:35.318Z,34.92
2022-08-28T10:03:20.986Z,34.94
2022-08-28T10:06:03.147Z,34.98
2022-08-28T10:08:48.021Z,34.97
2022-08-28T10:11:24.801Z,34.85
2022-08-28T10:14:02.542Z,34.84
2022-08-28T10:16:44.125Z,34.78
2022-08-28T10:19:30.229Z,34.74
2022-08-28T10:22:05.125Z,34.67
2022-08-28T10:24:53.251Z,34.53
2022-08-28T10:27:35.925Z,34.38
2022-08-28T10:30:13.192Z,34.31
2022-08-28T10:33:08.501Z,34.32
2022-08-28T10:35:49.380Z,34.30
2022-08-28T10:38:22.884Z,34.21
2022-08-28T10:40:58.596Z,34.14
2022-08-28T10:43:33.701Z,34.08
2022-08-28T10:46:09.622Z,34.02
2022-08-28T10:48:45.740Z,33.99
2022-08-28T10:51:20.291Z,33.97
2022-08-28T10:54:07.875Z,33.95
2022-08-28T10:56:43.064Z,33.97
2022-08-28T10:59:12.000Z,34.03
2022-08-28T11:01:42.504Z,34.09
2022-08-28T11:04:24.906Z,34.16
2022-08-28T11:06:58.283Z,34.17
2022-08-28T11:09:33.004Z,34.16
2022-08-28T11:12:06.348Z,34.16
2022-08-28T11:14:39.432Z,34.14
2022-08-28T11:17:38.603Z,34.16
2022-08-28T11:20:15.573Z,34.17
2022-08-28T11:22:46.801Z,34.17
2022-08-28T11:25:26.307Z,34.19
2022-08-28T11:28:21.738Z,34.26
2022-08-28T11:31:30.389Z,34.35
2022-08-28T11:34:00.348Z,34.37
2022-08-28T11:36:58.606Z,34.38
2022-08-28T11:39:27.357Z,34.39
2022-08-28T11:42:34.152Z,34.27
2022-08-28T11:45:03.218Z,34.09
2022-08-28T11:47:55.942Z,34.03
2022-08-28T11:50:33.131Z,34.01
2022-08-28T11:53:33.670Z,33.97
2022-08-28T11:56:39.903Z,33.87
2022-08-28T11:59:25.144Z,33.79
2022-08-28T12:02:35.670Z,33.59
2022-08-28T12:05:06.904Z,33.42
2022-08-28T12:07:37.041Z,33.30
2022-08-28T12:10:46.424Z,33.20
2022-08-28T12:13:47.597Z,33.07
2022-08-28T12:16:16.587Z,32.96
2022-08-28T12:19:01.908Z,32.86
2022-08-28T12:21:38.191Z,32.72
2022-08-28T12:24:20.154Z,32.65
2022-08-28T12:26:54.094Z,32.55
2022-08-28T12:29:31.486Z,32.50
2022-08-28T12:32:26.366Z,32.48
2022-08-28T12:35:17.103Z,32.52
2022-08-28T12:37:59.398Z,32.60
2022-08-28T12:40:31.472Z,32.66
2022-08-28T12:43:03.755Z,32.63
2022-08-28T12:45:37.894Z,32.59
2022-08-28T12:48:16.432Z,32.55
2022-08-28T12:50:45.629Z,32.51
2022-08-28T12:53:17.874Z,32.49
2022-08-28T12:55:47.085Z,32.50
2022-08-28T12:58:31.810Z,32.52
2022-08-28T13:01:04.017Z,32.57
2022-08-28T13:03:33.026Z,32.64
2022-08-28T13:06:08.047Z,32.69
2022-08-28T13:08:37.662Z,32.74
2022-08-28T13:11:06.928Z,32.75
2022-08-28T13:13:39.397Z,32.79
2022-08-28T13:16:10.032Z,32.83
2022-08-28T13:18:43.334Z,32.87
2022-08-28T13:21:34.881Z,32.87
2022-08-28T13:24:26.592Z,32.85
2022-08-28T13:27:04.998Z,32.89
2022-08-28T13:29:34.379Z,32.90
2022-08-28T13:32:05.871Z,32.90
2022-08-28T13:34:35.891Z,32.88
2022-08-28T13:37:07.290Z,32.82
2022-08-28T13:39:43.503Z,32.75
2022-08-28T13:42:15.774Z,32.70
2022-08-28T13:44:48.264Z,32.63
2022-08-28T13:47:17.365Z,32.51
2022-08-28T13:49:46.206Z,32.42
2022-08-28T13:52:14.718Z,32.39
2022-08-28T13:54:45.536Z,32.34
2022-08-28T13:57:15.340Z,32.32
2022-08-28T13:59:43.750Z,32.29
2022-08-28T14:02:32.771Z,32.27
2022-08-28T14:05:01.668Z,32.29
2022-08-28T14:07:30.244Z,32.31
2022-08-28T14:09:58.971Z,32.35
2022-08-28T14:12:33.410Z,32.38
2022-08-28T14:15:02.229Z,32.39
2022-08-28T14:17:30.731Z,32.31
2022-08-28T14:19:59.782Z,32.24
2022-08-28T14:22:28.297Z,32.20
2022-08-28T14:24:57.055Z,32.14
2022-08-28T14:27:25.378Z,32.10
2022-08-28T14:29:53.902Z,32.07
2022-08-28T14:32:22.620Z,32.02
2022-08-28T14:34:51.129Z,31.99
2022-08-28T14:37:21.056Z,31.96
2022-08-28T14:39:50.167Z,31.92
2022-08-28T14:42:19.018Z,31.90
2022-08-28T14:44:47.475Z,31.88
2022-08-28T14:47:15.931Z,31.86
2022-08-28T14:49:44.917Z,31.85
2022-08-28T14:52:14.068Z,31.84
2022-08-28T14:54:42.791Z,31.85
2022-08-28T14:57:11.927Z,31.88
2022-08-28T14:59:40.341Z,31.88
2022-08-28T15:02:08.746Z,31.87
2022-08-28T15:04:37.463Z,31.88
2022-08-28T15:07:10.391Z,31.88
2022-08-28T15:09:41.517Z,31.87
2022-08-28T15:12:10.780Z,31.85
2022-08-28T15:14:40.567Z,31.83
2022-08-28T15:17:19.528Z,31.77
2022-08-28T15:19:48.305Z,31.71
2022-08-28T15:22:27.046Z,31.63
2022-08-28T15:24:56.126Z,31.54
2022-08-28T15:27:24.619Z,31.48
2022-08-28T15:29:53.103Z,31.41
2022-08-28T15:32:21.519Z,31.37
2022-08-28T15:34:51.197Z,31.33
2022-08-28T15:37:19.674Z,31.30
2022-08-28T15:40:06.427Z,31.28
2022-08-28T15:42:35.033Z,31.26
2022-08-28T15:45:04.110Z,31.24
2022-08-28T15:47:32.695Z,31.22
2022-08-28T15:50:04.590Z,31.21
2022-08-28T15:52:33.155Z,31.19
2022-08-28T15:55:01.747Z,31.16
2022-08-28T15:57:30.211Z,31.13
2022-08-28T15:59:59.359Z,31.10
2022-08-28T16:02:27.768Z,31.06
2022-08-28T16:04:56.225Z,31.03
2022-08-28T16:07:25.377Z,30.98
2022-08-28T16:09:53.847Z,30.94
2022-08-28T16:12:22.319Z,30.91
2022-08-28T16:14:50.976Z,30.86
2022-08-28T16:17:20.063Z,30.83
2022-08-28T16:19:48.513Z,30.78
2022-08-28T16:22:17.599Z,30.72
2022-08-28T16:24:46.259Z,30.64
2022-08-28T16:27:16.579Z,30.57
2022-08-28T16:29:45.288Z,30.49
2022-08-28T16:32:13.708Z,30.42
2022-08-28T16:34:44.702Z,30.35
2022-08-28T16:37:14.339Z,30.27
2022-08-28T16:39:52.434Z,30.20
2022-08-28T16:42:20.739Z,30.12
2022-08-28T16:44:49.176Z,30.05
2022-08-28T16:47:17.495Z,29.99
2022-08-28T16:49:45.860Z,29.91
2022-08-28T16:52:16.863Z,29.85
2022-08-28T16:54:48.727Z,29.79
2022-08-28T16:57:18.372Z,29.73
2022-08-28T16:59:47.730Z,29.68
2022-08-28T17:02:24.460Z,29.62
2022-08-28T17:05:00.536Z,29.56
2022-08-28T17:07:29.409Z,29.49
2022-08-28T17:09:59.516Z,29.43
2022-08-28T17:12:28.899Z,29.37
2022-08-28T17:14:57.628Z,29.32
2022-08-28T17:17:26.116Z,29.27
2022-08-28T17:19:54.519Z,29.20
2022-08-28T17:22:32.309Z,29.15
2022-08-28T17:25:06.832Z,29.10
2022-08-28T17:27:36.094Z,29.06
2022-08-28T17:30:06.456Z,29.02
2022-08-28T17:32:36.773Z,28.98
2022-08-28T17:35:06.776Z,28.95
2022-08-28T17:37:37.273Z,28.91
2022-08-28T17:40:11.103Z,28.87
2022-08-28T17:42:41.086Z,28.74
2022-08-28T17:45:11.933Z,28.54
2022-08-28T17:47:40.761Z,28.27
2022-08-28T17:50:11.766Z,28.00
2022-08-28T17:52:40.322Z,27.71
2022-08-28T17:55:09.662Z,27.38
2022-08-28T17:57:38.150Z,27.06
2022-08-28T18:00:10.763Z,26.75
2022-08-28T18:02:42.546Z,26.51
2022-08-28T18:05:13.820Z,26.29
2022-08-28T18:07:42.208Z,26.08
2022-08-28T18:10:11.541Z,25.86
2022-08-28T18:12:41.111Z,25.72
2022-08-28T18:15:13.156Z,25.60
2022-08-28T18:17:42.642Z,25.50
2022-08-28T18:20:12.014Z,25.42
2022-08-28T18:22:40.447Z,25.36
2022-08-28T18:25:31.025Z,25.30
2022-08-28T18:27:59.834Z,25.23
2022-08-28T18:30:29.266Z,25.18
2022-08-28T18:32:58.496Z,25.13
2022-08-28T18:35:32.159Z,25.07
2022-08-28T18:38:01.164Z,25.01
2022-08-28T18:40:30.320Z,24.96
2022-08-28T18:42:58.941Z,24.94
2022-08-28T18:45:27.661Z,24.92
2022-08-28T18:47:56.223Z,24.90
2022-08-28T18:50:27.623Z,24.88
2022-08-28T18:52:57.775Z,24.86
2022-08-28T18:55:30.104Z,24.85
2022-08-28T18:58:01.349Z,24.82
2022-08-28T19:00:30.334Z,24.79
2022-08-28T19:02:59.549Z,24.74
2022-08-28T19:05:29.709Z,24.71
2022-08-28T19:08:00.571Z,24.68
2022-08-28T19:10:33.846Z,24.63
2022-08-28T19:13:03.963Z,24.57
2022-08-28T19:15:33.052Z,24.53
2022-08-28T19:18:02.527Z,24.51
2022-08-28T19:20:31.484Z,24.49
2022-08-28T19:23:00.821Z,24.46
2022-08-28T19:25:30.454Z,24.43
2022-08-28T19:28:01.424Z,24.41
2022-08-28T19:30:33.345Z,24.38
2022-08-28T19:33:04.175Z,24.35
2022-08-28T19:35:34.090Z,24.32
2022-08-28T19:38:04.271Z,24.31
2022-08-28T19:40:35.309Z,24.29
2022-08-28T19:43:05.467Z,24.28
2022-08-28T19:45:34.901Z,24.28
2022-08-28T19:48:05.161Z,24.28
2022-08-28T19:50:33.607Z,24.28
2022-08-28T19:53:02.044Z,24.27
2022-08-28T19:55:31.145Z,24.27
2022-08-28T19:57:59.783Z,24.28
2022-08-28T20:00:29.092Z,24.29
2022-08-28T20:02:57.750Z,24.30
2022-08-28T20:05:26.287Z,24.30
2022-08-28T20:07:55.633Z,24.31
2022-08-28T20:10:30.937Z,24.31
2022-08-28T20:12:59.371Z,24.33
2022-08-28T20:15:28.463Z,24.34
2022-08-28T20:17:57.143Z,24.33
2022-08-28T20:20:29.750Z,24.33
2022-08-28T20:22:59.682Z,24.33
2022-08-28T20:25:28.534Z,24.33
2022-08-28T20:28:01.681Z,24.33
2022-08-28T20:30:30.991Z,24.33
2022-08-28T20:33:01.476Z,24.32
2022-08-28T20:35:32.678Z,24.32
2022-08-28T20:38:05.771Z,24.31
2022-08-28T20:40:34.558Z,24.31
2022-08-28T20:43:03.874Z,24.31
2022-08-28T20:45:33.785Z,24.30
2022-08-28T20:48:02.729Z,24.31
2022-08-28T20:50:31.219Z,24.29
2022-08-28T20:53:03.135Z,24.30
2022-08-28T20:55:31.911Z,24.30
2022-08-28T20:58:00.662Z,24.30
2022-08-28T21:00:31.878Z,24.30
2022-08-28T21:03:02.580Z,24.28
2022-08-28T21:05:31.167Z,24.25
2022-08-28T21:07:59.759Z,24.23
2022-08-28T21:10:28.521Z,24.22
2022-08-28T21:12:56.846Z,24.19
2022-08-28T21:15:26.636Z,24.19
2022-08-28T21:17:56.072Z,24.18
2022-08-28T21:20:29.066Z,24.15
2022-08-28T21:23:02.016Z,24.13
2022-08-28T21:25:31.025Z,24.10
2022-08-28T21:27:59.663Z,24.09
2022-08-28T21:30:35.433Z,24.06
2022-08-28T21:33:04.775Z,24.05
2022-08-28T21:35:35.949Z,24.04
2022-08-28T21:38:05.754Z,24.04
2022-08-28T21:40:35.059Z,24.02
2022-08-28T21:43:05.663Z,24.02
2022-08-28T21:45:34.505Z,24.03
2022-08-28T21:48:07.207Z,24.02
2022-08-28T21:50:41.872Z,24.01
2022-08-28T21:53:15.332Z,23.99
2022-08-28T21:55:51.896Z,23.97
2022-08-28T21:58:22.282Z,23.95
2022-08-28T22:00:56.638Z,23.94
2022-08-28T22:03:26.396Z,23.91
2022-08-28T22:05:56.435Z,23.90
2022-08-28T22:08:27.777Z,23.86
2022-08-28T22:11:01.274Z,23.85
2022-08-28T22:13:36.763Z,23.83
2022-08-28T22:16:06.293Z,23.82
2022-08-28T22:18:35.529Z,23.81
2022-08-28T22:21:22.903Z,23.80
2022-08-28T22:23:51.370Z,23.78
2022-08-28T22:26:22.428Z,23.75
2022-08-28T22:28:50.808Z,23.71
2022-08-28T22:31:20.826Z,23.68
2022-08-28T22:33:49.521Z,23.63
2022-08-28T22:36:19.322Z,23.59
2022-08-28T22:38:53.486Z,23.55
2022-08-28T22:41:22.274Z,23.52
2022-08-28T22:43:53.088Z,23.51
2022-08-28T22:46:22.036Z,23.50
2022-08-28T22:48:51.159Z,23.50
2022-08-28T22:51:19.804Z,23.49
2022-08-28T22:53:52.294Z,23.49
2022-08-28T22:56:22.482Z,23.48
2022-08-28T22:58:50.957Z,23.49
2022-08-28T23:01:22.543Z,23.46
2022-08-28T23:03:54.506Z,23.43
2022-08-28T23:06:25.174Z,23.42
2022-08-28T23:08:53.504Z,23.41
2022-08-28T23:11:27.070Z,23.40
2022-08-28T23:13:58.091Z,23.41
2022-08-28T23:16:26.891Z,23.41
2022-08-28T23:19:09.668Z,23.40
2022-08-28T23:21:44.678Z,23.39
2022-08-28T23:24:25.383Z,23.38
2022-08-28T23:26:56.245Z,23.37
2022-08-28T23:29:27.120Z,23.36
2022-08-28T23:31:56.695Z,23.33
2022-08-28T23:34:31.053Z,23.28
2022-08-28T23:37:02.170Z,23.25
2022-08-28T23:39:30.640Z,23.25
2022-08-28T23:42:03.789Z,23.25
2022-08-28T23:44:36.065Z,23.26
2022-08-28T23:47:05.995Z,23.28
2022-08-28T23:49:44.630Z,23.30
2022-08-28T23:52:15.309Z,23.31
2022-08-28T23:54:50.137Z,23.30
2022-08-28T23:57:18.896Z,23.30
2022-08-28T23:59:56.159Z,23.31
